createdAt,value
2023-03-29T00:00:30.496Z,-0.80
2023-03-29T00:02:57.993Z,-0.72
2023-03-29T00:05:26.131Z,-0.67
2023-03-29T00:08:02.604Z,-0.66
2023-03-29T00:10:32.719Z,-0.71
2023-03-29T00:12:59.924Z,-0.82
2023-03-29T00:15:26.887Z,-0.84
2023-03-29T00:17:54.164Z,-0.88
2023-03-29T00:20:20.887Z,-0.89
2023-03-29T00:22:48.002Z,-0.86
2023-03-29T00:25:14.719Z,-0.86
2023-03-29T00:27:41.537Z,-0.85
2023-03-29T00:30:10.192Z,-0.90
2023-03-29T00:32:37.186Z,-0.91
2023-03-29T00:35:06.169Z,-0.93
2023-03-29T00:37:33.165Z,-0.93
2023-03-29T00:39:59.922Z,-0.91
2023-03-29T00:42:27.026Z,-0.92
2023-03-29T00:45:04.736Z,-0.88
2023-03-29T00:47:42.653Z,-0.79
2023-03-29T00:50:26.363Z,-0.79
2023-03-29T00:53:03.724Z,-0.69
2023-03-29T00:55:55.901Z,-0.55
2023-03-29T00:58:30.716Z,-0.54
2023-03-29T01:01:08.856Z,-0.51
2023-03-29T01:03:41.575Z,-0.63
2023-03-29T01:06:09.163Z,-0.78
2023-03-29T01:08:40.418Z,-0.89
2023-03-29T01:11:15.865Z,-0.88
2023-03-29T01:13:51.079Z,-0.89
2023-03-29T01:16:19.553Z,-0.82
2023-03-29T01:18:49.397Z,-0.85
2023-03-29T01:21:47.912Z,-0.83
2023-03-29T01:24:44.353Z,-0.77
2023-03-29T01:27:38.847Z,-0.61
2023-03-29T01:30:43.758Z,-0.44
2023-03-29T01:33:23.625Z,-0.40
2023-03-29T01:36:19.247Z,-0.36
2023-03-29T01:38:51.667Z,-0.33
2023-03-29T01:41:18.505Z,-0.24
2023-03-29T01:43:51.414Z,-0.39
2023-03-29T01:46:25.771Z,-0.38
2023-03-29T01:49:23.869Z,-0.42
2023-03-29T01:51:59.015Z,-0.45
2023-03-29T01:54:33.587Z,-0.39
2023-03-29T01:57:03.092Z,-0.45
2023-03-29T01:59:32.428Z,-0.50
2023-03-29T02:02:01.412Z,-0.45
2023-03-29T02:04:34.705Z,-0.42
2023-03-29T02:07:03.238Z,-0.32
2023-03-29T02:09:30.768Z,-0.29
2023-03-29T02:12:00.196Z,-0.21
2023-03-29T02:14:27.717Z,-0.09
2023-03-29T02:16:54.370Z,-0.02
2023-03-29T02:19:24.157Z,0.04
2023-03-29T02:22:04.514Z,0.09
2023-03-29T02:24:34.548Z,0.12
2023-03-29T02:27:01.469Z,0.16
2023-03-29T02:29:28.335Z,-0.13
2023-03-29T02:32:13.015Z,0.05
2023-03-29T02:34:54.689Z,0.11
2023-03-29T02:37:22.744Z,0.36
2023-03-29T02:39:51.269Z,0.45
2023-03-29T02:42:20.590Z,0.50
2023-03-29T02:44:50.517Z,0.60
2023-03-29T02:47:22.560Z,0.71
2023-03-29T02:49:50.447Z,0.76
2023-03-29T02:52:22.225Z,0.76
2023-03-29T02:54:50.382Z,0.75
2023-03-29T02:57:17.387Z,0.92
2023-03-29T02:59:44.992Z,1.04
2023-03-29T03:02:12.338Z,1.22
2023-03-29T03:04:39.570Z,1.37
2023-03-29T03:07:06.330Z,1.35
2023-03-29T03:09:33.738Z,1.34
2023-03-29T03:12:00.518Z,1.32
2023-03-29T03:14:28.345Z,1.30
2023-03-29T03:16:57.998Z,1.43
2023-03-29T03:19:24.930Z,1.48
2023-03-29T03:21:51.805Z,1.57
2023-03-29T03:24:18.926Z,1.76
2023-03-29T03:26:46.500Z,1.95
2023-03-29T03:29:14.551Z,2.08
2023-03-29T03:32:07.914Z,2.19
2023-03-29T03:34:57.224Z,2.23
2023-03-29T03:37:25.731Z,2.33
2023-03-29T03:39:52.639Z,2.32
2023-03-29T03:42:20.523Z,2.30
2023-03-29T03:44:47.836Z,2.41
2023-03-29T03:47:39.576Z,2.42
2023-03-29T03:50:19.285Z,2.47
2023-03-29T03:52:46.547Z,2.57
2023-03-29T03:55:14.524Z,2.61
2023-03-29T03:57:47.989Z,2.57
2023-03-29T04:00:21.544Z,2.52
2023-03-29T04:03:20.019Z,2.40
2023-03-29T04:05:47.947Z,2.37
2023-03-29T04:08:16.665Z,2.31
2023-03-29T04:11:02.067Z,2.28
2023-03-29T04:13:35.793Z,2.29
2023-03-29T04:16:21.444Z,2.27
2023-03-29T04:18:48.528Z,2.42
2023-03-29T04:21:15.834Z,2.41
2023-03-29T04:23:43.403Z,2.37
2023-03-29T04:26:10.301Z,2.39
2023-03-29T04:28:47.182Z,2.46
2023-03-29T04:31:19.213Z,2.49
2023-03-29T04:34:21.742Z,2.52
2023-03-29T04:36:51.978Z,2.46
2023-03-29T04:39:22.971Z,2.44
2023-03-29T04:41:55.485Z,2.37
2023-03-29T04:44:27.022Z,2.39
2023-03-29T04:46:57.374Z,2.41
2023-03-29T04:49:54.317Z,2.36
2023-03-29T04:52:35.940Z,2.29
2023-03-29T04:55:06.304Z,2.06
2023-03-29T04:57:44.726Z,1.99
2023-03-29T05:00:27.404Z,1.78
2023-03-29T05:03:18.005Z,1.61
2023-03-29T05:06:10.809Z,1.59
2023-03-29T05:08:39.895Z,1.66
2023-03-29T05:11:14.202Z,1.73
2023-03-29T05:13:43.117Z,1.76
2023-03-29T05:16:11.390Z,1.77
2023-03-29T05:18:39.790Z,1.77
2023-03-29T05:21:07.796Z,1.84
2023-03-29T05:23:36.838Z,1.86
2023-03-29T05:26:23.381Z,1.91
2023-03-29T05:28:54.107Z,1.83
2023-03-29T05:31:21.621Z,1.53
2023-03-29T05:33:53.691Z,1.45
2023-03-29T05:36:22.023Z,1.34
2023-03-29T05:38:50.525Z,1.36
2023-03-29T05:41:19.983Z,1.44
2023-03-29T05:44:06.718Z,1.46
2023-03-29T05:46:34.565Z,1.24
2023-03-29T05:49:04.405Z,1.33
2023-03-29T05:52:01.163Z,1.39
2023-03-29T05:54:30.849Z,1.44
2023-03-29T05:56:58.432Z,1.50
2023-03-29T05:59:28.583Z,1.60
2023-03-29T06:01:55.912Z,1.62
2023-03-29T06:04:22.908Z,1.51
2023-03-29T06:07:10.424Z,1.51
2023-03-29T06:09:39.630Z,1.58
2023-03-29T06:12:08.446Z,1.64
2023-03-29T06:14:50.305Z,1.67
2023-03-29T06:17:33.606Z,1.72
2023-03-29T06:20:01.556Z,1.82
2023-03-29T06:22:30.812Z,1.84
2023-03-29T06:24:58.626Z,1.82
2023-03-29T06:27:30.054Z,1.89
2023-03-29T06:29:57.503Z,1.73
2023-03-29T06:32:24.426Z,1.57
2023-03-29T06:34:57.804Z,1.57
2023-03-29T06:37:32.138Z,1.69
2023-03-29T06:40:10.211Z,1.56
2023-03-29T06:42:45.464Z,1.29
2023-03-29T06:45:16.150Z,1.34
2023-03-29T06:47:47.606Z,1.39
2023-03-29T06:50:14.818Z,1.56
2023-03-29T06:52:52.703Z,1.67
2023-03-29T06:55:20.753Z,1.85
2023-03-29T06:57:49.045Z,1.94
2023-03-29T07:00:28.133Z,2.09
2023-03-29T07:03:20.598Z,2.21
2023-03-29T07:05:52.274Z,2.37
2023-03-29T07:08:21.467Z,2.50
2023-03-29T07:10:58.636Z,2.61
2023-03-29T07:13:26.543Z,2.70
2023-03-29T07:15:54.894Z,2.83
2023-03-29T07:18:31.848Z,2.66
2023-03-29T07:20:58.937Z,2.74
2023-03-29T07:23:26.127Z,2.53
2023-03-29T07:25:53.779Z,2.50
2023-03-29T07:28:21.786Z,2.56
2023-03-29T07:30:49.922Z,2.75
2023-03-29T07:33:21.437Z,2.90
2023-03-29T07:35:55.705Z,2.88
2023-03-29T07:38:23.870Z,3.06
2023-03-29T07:41:08.248Z,3.19
2023-03-29T07:44:09.647Z,3.39
2023-03-29T07:46:38.678Z,3.53
2023-03-29T07:49:08.507Z,3.57
2023-03-29T07:51:37.332Z,3.59
2023-03-29T07:54:09.212Z,3.43
2023-03-29T07:56:39.355Z,3.62
2023-03-29T07:59:25.110Z,3.61
2023-03-29T08:02:05.254Z,3.28
2023-03-29T08:04:37.513Z,3.10
2023-03-29T08:07:27.954Z,3.22
2023-03-29T08:10:04.228Z,3.25
2023-03-29T08:12:52.331Z,3.19
2023-03-29T08:15:23.703Z,2.99
2023-03-29T08:17:50.902Z,3.02
2023-03-29T08:20:18.169Z,3.08
2023-03-29T08:22:51.933Z,3.06
2023-03-29T08:25:18.714Z,3.15
2023-03-29T08:27:49.678Z,3.22
2023-03-29T08:30:25.138Z,2.96
2023-03-29T08:32:55.016Z,2.86
2023-03-29T08:35:22.737Z,2.85
2023-03-29T08:38:01.824Z,2.79
2023-03-29T08:40:30.592Z,2.70
2023-03-29T08:43:18.601Z,2.90
2023-03-29T08:46:35.381Z,3.23
2023-03-29T08:49:17.587Z,3.48
2023-03-29T08:51:54.267Z,3.46
2023-03-29T08:54:27.386Z,3.51
2023-03-29T08:57:29.525Z,3.70
2023-03-29T09:00:05.640Z,3.56
2023-03-29T09:02:36.260Z,3.50
2023-03-29T09:05:21.122Z,3.76
2023-03-29T09:08:13.669Z,3.86
2023-03-29T09:10:47.400Z,3.88
2023-03-29T09:13:15.008Z,4.13
2023-03-29T09:16:06.197Z,4.15
2023-03-29T09:18:57.229Z,4.39
2023-03-29T09:21:43.628Z,4.44
2023-03-29T09:24:10.852Z,4.50
2023-03-29T09:27:03.425Z,4.63
2023-03-29T09:29:34.788Z,4.71
2023-03-29T09:32:04.020Z,4.74
2023-03-29T09:34:36.939Z,4.59
2023-03-29T09:37:15.050Z,4.51
2023-03-29T09:39:42.812Z,4.27
2023-03-29T09:42:14.510Z,4.22
2023-03-29T09:44:52.733Z,3.76
2023-03-29T09:47:58.302Z,4.04
2023-03-29T09:50:34.168Z,3.96
2023-03-29T09:53:05.563Z,3.70
2023-03-29T09:55:37.272Z,3.80
2023-03-29T09:58:27.558Z,3.95
2023-03-29T10:00:58.262Z,4.12
2023-03-29T10:03:29.873Z,4.18
2023-03-29T10:06:11.213Z,4.38
2023-03-29T10:08:42.463Z,4.75
2023-03-29T10:11:15.346Z,4.99
2023-03-29T10:13:47.785Z,5.21
2023-03-29T10:16:21.391Z,5.32
2023-03-29T10:18:50.308Z,5.50
2023-03-29T10:21:17.482Z,5.68
2023-03-29T10:23:44.659Z,5.93
2023-03-29T10:26:19.980Z,6.06
2023-03-29T10:28:46.748Z,6.18
2023-03-29T10:31:18.918Z,6.22
2023-03-29T10:33:51.693Z,6.41
2023-03-29T10:36:18.890Z,6.57
2023-03-29T10:38:46.393Z,6.57
2023-03-29T10:41:16.097Z,6.48
2023-03-29T10:43:45.598Z,6.58
2023-03-29T10:46:20.978Z,6.47
2023-03-29T10:48:50.362Z,6.43
2023-03-29T10:51:18.755Z,6.00
2023-03-29T10:53:46.027Z,5.93
2023-03-29T10:56:17.037Z,5.82
2023-03-29T10:59:16.698Z,5.56
2023-03-29T11:02:05.804Z,5.36
2023-03-29T11:04:56.869Z,5.43
2023-03-29T11:07:38.634Z,5.59
2023-03-29T11:10:43.958Z,5.38
2023-03-29T11:13:33.867Z,5.21
2023-03-29T11:16:27.529Z,5.36
2023-03-29T11:19:06.901Z,5.41
2023-03-29T11:21:59.860Z,5.58
2023-03-29T11:24:58.774Z,5.55
2023-03-29T11:27:43.702Z,5.73
2023-03-29T11:30:16.775Z,5.71
2023-03-29T11:33:11.852Z,5.85
2023-03-29T11:35:47.800Z,6.26
2023-03-29T11:38:32.871Z,6.37
2023-03-29T11:41:13.991Z,6.81
2023-03-29T11:44:03.890Z,6.81
2023-03-29T11:46:34.517Z,6.81
2023-03-29T11:49:23.073Z,6.91
2023-03-29T11:52:23.056Z,7.07
2023-03-29T11:54:58.549Z,7.45
2023-03-29T11:57:57.893Z,7.75
2023-03-29T12:00:30.091Z,8.02
2023-03-29T12:03:07.058Z,7.78
2023-03-29T12:05:44.464Z,7.75
2023-03-29T12:08:21.515Z,7.41
2023-03-29T12:10:52.944Z,7.50
2023-03-29T12:13:34.307Z,7.17
2023-03-29T12:16:20.881Z,7.25
2023-03-29T12:18:50.088Z,7.14
2023-03-29T12:21:21.550Z,7.11
2023-03-29T12:23:50.016Z,7.32
2023-03-29T12:26:40.508Z,7.19
2023-03-29T12:29:23.009Z,7.09
2023-03-29T12:31:59.495Z,7.03
2023-03-29T12:34:58.734Z,7.34
2023-03-29T12:37:36.401Z,7.48
2023-03-29T12:40:23.311Z,7.60
2023-03-29T12:43:16.210Z,8.12
2023-03-29T12:46:07.009Z,8.55
2023-03-29T12:48:35.294Z,8.28
2023-03-29T12:51:04.254Z,8.61
2023-03-29T12:53:33.210Z,8.79
2023-03-29T12:56:04.142Z,8.84
2023-03-29T12:58:43.202Z,8.81
2023-03-29T13:01:27.736Z,9.07
2023-03-29T13:04:01.610Z,9.27
2023-03-29T13:06:33.125Z,9.27
2023-03-29T13:09:20.687Z,9.57
2023-03-29T13:11:55.659Z,9.92
2023-03-29T13:14:26.454Z,10.15
2023-03-29T13:16:53.918Z,10.25
2023-03-29T13:19:38.764Z,10.39
2023-03-29T13:22:30.225Z,10.18
2023-03-29T13:25:06.837Z,9.44
2023-03-29T13:27:59.078Z,9.01
2023-03-29T13:30:47.510Z,8.75
2023-03-29T13:33:28.896Z,8.38
2023-03-29T13:36:05.563Z,8.43
2023-03-29T13:38:33.294Z,8.50
2023-03-29T13:41:03.751Z,8.54
2023-03-29T13:43:32.961Z,8.26
2023-03-29T13:46:00.172Z,8.07
2023-03-29T13:48:29.467Z,8.35
2023-03-29T13:50:57.696Z,8.62
2023-03-29T13:53:37.636Z,8.83
2023-03-29T13:56:06.988Z,9.09
2023-03-29T13:59:05.655Z,9.63
2023-03-29T14:01:43.603Z,10.10
2023-03-29T14:04:20.680Z,10.40
2023-03-29T14:06:53.186Z,10.62
2023-03-29T14:09:22.859Z,10.78
2023-03-29T14:11:49.888Z,10.88
2023-03-29T14:14:17.960Z,11.00
2023-03-29T14:16:44.793Z,11.07
2023-03-29T14:19:16.684Z,11.16
2023-03-29T14:21:44.110Z,11.18
2023-03-29T14:24:13.492Z,11.31
2023-03-29T14:26:44.179Z,11.32
2023-03-29T14:29:12.457Z,11.25
2023-03-29T14:31:41.336Z,11.27
2023-03-29T14:34:14.179Z,11.30
2023-03-29T14:36:41.416Z,11.35
2023-03-29T14:39:20.162Z,11.39
2023-03-29T14:41:50.790Z,11.49
2023-03-29T14:44:19.760Z,11.56
2023-03-29T14:46:49.423Z,11.61
2023-03-29T14:49:18.446Z,11.68
2023-03-29T14:51:46.669Z,11.60
2023-03-29T14:54:20.808Z,11.64
2023-03-29T14:56:48.959Z,11.63
2023-03-29T14:59:29.626Z,11.74
2023-03-29T15:01:56.912Z,11.77
2023-03-29T15:04:24.091Z,11.83
2023-03-29T15:06:52.540Z,11.86
2023-03-29T15:09:27.902Z,11.79
2023-03-29T15:11:57.025Z,11.67
2023-03-29T15:14:26.880Z,11.62
2023-03-29T15:17:01.301Z,11.59
2023-03-29T15:19:28.491Z,11.59
2023-03-29T15:21:56.286Z,11.54
2023-03-29T15:24:31.367Z,11.54
2023-03-29T15:27:21.360Z,11.57
2023-03-29T15:29:49.079Z,11.54
2023-03-29T15:32:38.833Z,11.51
2023-03-29T15:35:09.785Z,11.48
2023-03-29T15:37:48.107Z,11.48
2023-03-29T15:40:21.808Z,11.43
2023-03-29T15:42:51.110Z,11.47
2023-03-29T15:45:19.441Z,11.44
2023-03-29T15:47:47.402Z,11.42
2023-03-29T15:50:15.638Z,11.35
2023-03-29T15:52:42.526Z,11.40
2023-03-29T15:55:09.644Z,11.39
2023-03-29T15:57:36.667Z,11.43
2023-03-29T16:00:08.635Z,11.47
2023-03-29T16:02:39.194Z,11.59
2023-03-29T16:05:06.570Z,11.66
2023-03-29T16:07:34.426Z,11.76
2023-03-29T16:10:01.928Z,11.81
2023-03-29T16:12:29.314Z,11.83
2023-03-29T16:14:56.751Z,11.75
2023-03-29T16:17:25.004Z,11.69
2023-03-29T16:19:52.188Z,11.72
2023-03-29T16:22:19.620Z,11.63
2023-03-29T16:24:49.673Z,11.58
2023-03-29T16:27:18.079Z,11.53
2023-03-29T16:29:45.590Z,11.53
2023-03-29T16:32:13.894Z,11.50
2023-03-29T16:34:42.326Z,11.43
2023-03-29T16:37:10.597Z,11.44
2023-03-29T16:39:42.020Z,11.40
2023-03-29T16:42:12.054Z,11.27
2023-03-29T16:44:39.202Z,11.28
2023-03-29T16:47:06.974Z,11.26
2023-03-29T16:49:33.748Z,11.11
2023-03-29T16:52:01.100Z,11.01
2023-03-29T16:54:29.826Z,10.88
2023-03-29T16:56:57.805Z,10.60
2023-03-29T16:59:24.968Z,10.54
2023-03-29T17:01:52.287Z,10.32
2023-03-29T17:04:20.117Z,10.10
2023-03-29T17:06:49.268Z,9.81
2023-03-29T17:09:18.618Z,9.63
2023-03-29T17:11:46.532Z,9.40
2023-03-29T17:14:15.236Z,9.29
2023-03-29T17:16:43.461Z,9.13
2023-03-29T17:19:10.994Z,9.10
2023-03-29T17:21:38.382Z,8.74
2023-03-29T17:24:05.444Z,8.45
2023-03-29T17:26:32.479Z,8.31
2023-03-29T17:29:00.719Z,8.11
2023-03-29T17:31:29.754Z,7.95
2023-03-29T17:34:00.857Z,8.06
2023-03-29T17:36:31.251Z,8.06
2023-03-29T17:41:31.035Z,8.16
2023-03-29T17:43:59.018Z,8.32
2023-03-29T17:46:28.813Z,8.44
2023-03-29T17:48:56.222Z,8.52
2023-03-29T17:51:24.491Z,8.58
2023-03-29T17:53:52.621Z,8.77
2023-03-29T17:56:22.823Z,9.09
2023-03-29T17:58:51.657Z,9.65
2023-03-29T18:01:21.309Z,10.09
2023-03-29T18:03:48.718Z,10.32
2023-03-29T18:06:18.609Z,10.48
2023-03-29T18:08:47.397Z,10.67
2023-03-29T18:11:22.357Z,10.75
2023-03-29T18:13:51.918Z,10.79
2023-03-29T18:16:21.768Z,10.79
2023-03-29T18:18:50.086Z,10.75
2023-03-29T18:21:18.130Z,10.81
2023-03-29T18:23:48.149Z,10.84
2023-03-29T18:26:16.436Z,10.85
2023-03-29T18:28:47.056Z,10.79
2023-03-29T18:31:14.486Z,10.79
2023-03-29T18:33:42.461Z,10.84
2023-03-29T18:36:13.336Z,10.88
2023-03-29T18:38:44.358Z,10.80
2023-03-29T18:41:14.504Z,10.82
2023-03-29T18:43:45.034Z,10.88
2023-03-29T18:46:12.974Z,10.89
2023-03-29T18:48:41.600Z,10.83
2023-03-29T18:51:12.102Z,10.93
2023-03-29T18:53:42.670Z,10.99
2023-03-29T18:56:11.904Z,11.05
2023-03-29T18:58:39.384Z,11.13
2023-03-29T19:01:06.692Z,11.18
2023-03-29T19:03:35.016Z,11.14
2023-03-29T19:06:02.397Z,11.09
2023-03-29T19:08:29.461Z,11.09
2023-03-29T19:11:04.568Z,11.03
2023-03-29T19:13:31.431Z,11.11
2023-03-29T19:15:58.201Z,11.07
2023-03-29T19:18:25.031Z,11.20
2023-03-29T19:20:53.874Z,11.26
2023-03-29T19:23:21.946Z,11.34
2023-03-29T19:25:56.297Z,11.39
2023-03-29T19:28:23.537Z,11.34
2023-03-29T19:30:50.585Z,11.36
2023-03-29T19:33:17.452Z,11.42
2023-03-29T19:35:44.651Z,11.50
2023-03-29T19:38:11.867Z,11.65
2023-03-29T19:40:38.880Z,11.75
2023-03-29T19:43:06.482Z,11.87
2023-03-29T19:45:33.617Z,11.87
2023-03-29T19:48:03.174Z,11.89
2023-03-29T19:50:32.094Z,11.97
2023-03-29T19:52:59.267Z,12.02
2023-03-29T19:55:27.382Z,12.01
2023-03-29T19:57:54.537Z,12.00
2023-03-29T20:00:25.083Z,12.01
2023-03-29T20:02:52.587Z,11.98
2023-03-29T20:05:20.217Z,12.06
2023-03-29T20:07:47.024Z,12.08
2023-03-29T20:10:13.794Z,12.09
2023-03-29T20:12:40.798Z,12.13
2023-03-29T20:15:09.667Z,12.19
2023-03-29T20:17:41.171Z,11.91
2023-03-29T20:20:10.442Z,11.80
2023-03-29T20:22:42.386Z,11.71
2023-03-29T20:25:10.593Z,11.63
2023-03-29T20:27:38.525Z,11.54
2023-03-29T20:30:06.864Z,11.73
2023-03-29T20:32:34.370Z,12.03
2023-03-29T20:35:01.925Z,11.98
2023-03-29T20:37:29.319Z,11.74
2023-03-29T20:39:57.237Z,11.51
2023-03-29T20:42:28.946Z,11.35
2023-03-29T20:44:56.735Z,11.21
2023-03-29T20:47:24.742Z,11.23
2023-03-29T20:49:54.565Z,11.15
2023-03-29T20:52:22.877Z,10.92
2023-03-29T20:54:50.277Z,10.93
2023-03-29T20:57:20.088Z,10.87
2023-03-29T20:59:49.523Z,10.62
2023-03-29T21:02:20.938Z,10.68
2023-03-29T21:04:52.814Z,10.65
2023-03-29T21:07:21.663Z,11.17
2023-03-29T21:09:50.134Z,11.34
2023-03-29T21:12:17.888Z,11.13
2023-03-29T21:14:45.365Z,10.90
2023-03-29T21:17:12.385Z,10.71
2023-03-29T21:19:39.850Z,10.54
2023-03-29T21:22:07.316Z,10.50
2023-03-29T21:24:36.576Z,10.21
2023-03-29T21:27:04.342Z,10.08
2023-03-29T21:29:31.489Z,10.02
2023-03-29T21:31:59.138Z,10.00
2023-03-29T21:34:26.421Z,9.91
2023-03-29T21:36:53.983Z,9.74
2023-03-29T21:39:20.978Z,9.76
2023-03-29T21:41:48.263Z,9.71
2023-03-29T21:44:15.210Z,9.71
2023-03-29T21:46:42.348Z,9.79
2023-03-29T21:49:09.329Z,9.75
2023-03-29T21:51:36.069Z,9.84
2023-03-29T21:54:03.170Z,9.88
2023-03-29T21:56:30.439Z,9.90
2023-03-29T21:58:57.383Z,10.01
2023-03-29T22:01:24.168Z,10.00
2023-03-29T22:03:51.171Z,9.92
2023-03-29T22:06:17.838Z,9.78
2023-03-29T22:08:46.660Z,9.73
2023-03-29T22:11:15.534Z,9.66
2023-03-29T22:13:44.146Z,9.48
2023-03-29T22:16:14.341Z,9.50
2023-03-29T22:18:46.948Z,9.54
2023-03-29T22:21:17.915Z,9.49
2023-03-29T22:23:47.274Z,9.36
2023-03-29T22:26:17.359Z,9.36
2023-03-29T22:28:44.723Z,9.26
2023-03-29T22:31:15.383Z,9.08
2023-03-29T22:33:43.084Z,9.01
2023-03-29T22:36:20.123Z,8.92
2023-03-29T22:38:48.057Z,8.87
2023-03-29T22:41:15.559Z,8.94
2023-03-29T22:43:42.374Z,8.89
2023-03-29T22:46:11.232Z,8.87
2023-03-29T22:48:38.096Z,8.78
2023-03-29T22:51:05.973Z,8.84
2023-03-29T22:53:35.908Z,8.76
2023-03-29T22:56:03.042Z,8.77
2023-03-29T22:58:30.046Z,8.78
2023-03-29T23:00:57.647Z,8.81
2023-03-29T23:03:24.508Z,8.80
2023-03-29T23:05:56.018Z,8.82
2023-03-29T23:08:24.344Z,8.76
2023-03-29T23:10:51.995Z,8.69
2023-03-29T23:13:29.146Z,8.83
2023-03-29T23:16:01.226Z,8.83
2023-03-29T23:18:30.285Z,8.80
2023-03-29T23:20:58.534Z,8.93
2023-03-29T23:23:26.781Z,8.94
2023-03-29T23:25:54.511Z,8.86
2023-03-29T23:28:23.694Z,8.94
2023-03-29T23:31:04.301Z,9.01
2023-03-29T23:33:33.650Z,9.40
2023-03-29T23:36:03.946Z,9.82
2023-03-29T23:38:33.998Z,10.38
2023-03-29T23:41:03.758Z,10.82
2023-03-29T23:43:33.430Z,10.99
2023-03-29T23:46:02.595Z,11.06
2023-03-29T23:48:30.493Z,11.26
2023-03-29T23:50:58.038Z,11.31
2023-03-29T23:53:29.362Z,11.33
2023-03-29T23:56:01.827Z,11.36
2023-03-29T23:58:31.004Z,11.32
